createdAt,value
2019-05-18T00:02:15.783Z,23.20
2019-05-18T00:04:49.037Z,23.00
2019-05-18T00:07:22.786Z,23.50
2019-05-18T00:09:56.468Z,23.60
2019-05-18T00:12:30.623Z,23.90
2019-05-18T00:15:03.456Z,24.00
2019-05-18T00:17:37.144Z,23.80
2019-05-18T00:20:10.960Z,23.50
2019-05-18T00:22:43.738Z,23.40
2019-05-18T00:25:17.769Z,23.50
2019-05-18T00:27:50.102Z,23.30
2019-05-18T00:30:23.796Z,23.20
2019-05-18T00:32:56.919Z,23.10
2019-05-18T00:35:30.238Z,23.40
2019-05-18T00:38:03.895Z,23.50
2019-05-18T00:40:37.867Z,23.40
2019-05-18T00:43:11.570Z,23.50
2019-05-18T00:45:45.697Z,23.80
2019-05-18T00:48:19.348Z,23.90
2019-05-18T00:50:52.688Z,23.80
2019-05-18T00:53:25.448Z,23.80
2019-05-18T00:55:59.170Z,23.70
2019-05-18T00:58:33.308Z,23.80
2019-05-18T01:01:06.111Z,23.80
2019-05-18T01:03:38.981Z,23.90
2019-05-18T01:06:12.786Z,23.80
2019-05-18T01:08:45.733Z,23.80
2019-05-18T01:11:18.993Z,23.10
2019-05-18T01:13:52.639Z,22.70
2019-05-18T01:16:25.913Z,22.60
2019-05-18T01:18:59.186Z,22.10
2019-05-18T01:21:32.938Z,21.70
2019-05-18T01:24:05.903Z,21.40
2019-05-18T01:26:38.160Z,21.20
2019-05-18T01:29:11.922Z,21.00
2019-05-18T01:31:45.448Z,21.60
2019-05-18T01:34:18.797Z,21.60
2019-05-18T01:36:51.967Z,21.90
2019-05-18T01:39:24.831Z,22.00
2019-05-18T01:41:58.049Z,22.00
2019-05-18T01:44:31.342Z,22.10
2019-05-18T01:47:05.159Z,22.50
2019-05-18T01:49:38.765Z,22.70
2019-05-18T01:52:12.367Z,22.70
2019-05-18T01:54:45.283Z,23.00
2019-05-18T01:57:17.990Z,22.70
2019-05-18T01:59:51.791Z,22.80
2019-05-18T02:02:25.154Z,23.00
2019-05-18T02:04:57.894Z,23.30
2019-05-18T02:07:31.925Z,23.20
2019-05-18T02:10:05.760Z,23.20
2019-05-18T02:12:39.444Z,23.20
2019-05-18T02:15:13.270Z,22.90
2019-05-18T02:17:46.799Z,23.00
2019-05-18T02:20:20.514Z,22.70
2019-05-18T02:22:53.916Z,22.70
2019-05-18T02:25:27.702Z,22.70
2019-05-18T02:28:01.457Z,22.80
2019-05-18T02:30:35.164Z,22.70
2019-05-18T02:33:10.014Z,22.00
2019-05-18T02:35:43.621Z,22.20
2019-05-18T02:38:17.483Z,22.10
2019-05-18T02:40:51.669Z,22.30
2019-05-18T02:43:25.315Z,22.40
2019-05-18T02:45:59.015Z,22.50
2019-05-18T02:48:47.671Z,22.70
2019-05-18T02:51:11.462Z,22.80
2019-05-18T02:53:43.126Z,22.60
2019-05-18T02:56:16.912Z,22.60
2019-05-18T02:58:50.655Z,22.80
2019-05-18T03:01:23.907Z,22.90
2019-05-18T03:03:57.911Z,22.90
2019-05-18T03:06:30.681Z,22.80
2019-05-18T03:09:05.673Z,22.70
2019-05-18T03:11:39.479Z,22.90
2019-05-18T03:14:13.344Z,23.10
2019-05-18T03:16:47.010Z,23.10
2019-05-18T03:19:20.287Z,23.10
2019-05-18T03:21:53.918Z,23.00
2019-05-18T03:24:27.124Z,23.00
2019-05-18T03:27:00.814Z,22.90
2019-05-18T03:29:33.618Z,22.80
2019-05-18T03:32:06.848Z,22.70
2019-05-18T03:34:40.505Z,22.70
2019-05-18T03:37:13.924Z,22.80
2019-05-18T03:39:48.176Z,22.70
2019-05-18T03:42:21.008Z,22.80
2019-05-18T03:44:54.670Z,22.90
2019-05-18T03:47:27.511Z,22.70
2019-05-18T03:50:01.216Z,22.70
2019-05-18T03:52:34.915Z,22.70
2019-05-18T03:55:07.833Z,22.70
2019-05-18T03:57:40.720Z,22.60
2019-05-18T04:00:14.814Z,22.60
2019-05-18T04:02:48.915Z,22.60
2019-05-18T04:05:22.547Z,22.60
2019-05-18T04:07:56.867Z,22.80
2019-05-18T04:10:30.405Z,22.80
2019-05-18T04:13:04.656Z,22.90
2019-05-18T04:15:38.794Z,23.00
2019-05-18T04:18:11.658Z,22.90
2019-05-18T04:20:45.301Z,23.00
2019-05-18T04:23:18.584Z,23.00
2019-05-18T04:25:51.360Z,23.00
2019-05-18T04:28:24.928Z,23.00
2019-05-18T04:30:58.728Z,23.10
2019-05-18T04:33:32.032Z,23.20
2019-05-18T04:36:04.829Z,23.40
2019-05-18T04:38:38.243Z,23.70
2019-05-18T04:41:12.048Z,23.70
2019-05-18T04:43:45.728Z,23.90
2019-05-18T04:46:19.550Z,23.90
2019-05-18T04:48:53.748Z,24.00
2019-05-18T04:51:30.647Z,24.00
2019-05-18T04:54:03.911Z,23.80
2019-05-18T04:56:37.204Z,23.70
2019-05-18T04:59:10.528Z,23.90
2019-05-18T05:01:44.636Z,23.80
2019-05-18T05:04:17.405Z,23.70
2019-05-18T05:06:50.709Z,23.70
2019-05-18T05:09:24.577Z,23.90
2019-05-18T05:11:57.897Z,24.20
2019-05-18T05:14:30.785Z,24.20
2019-05-18T05:17:04.516Z,24.50
2019-05-18T05:19:38.835Z,24.70
2019-05-18T05:22:12.898Z,24.70
2019-05-18T05:24:46.524Z,24.90
2019-05-18T05:27:19.454Z,24.90
2019-05-18T05:29:53.729Z,24.90
2019-05-18T05:32:27.661Z,25.00
2019-05-18T05:35:01.408Z,25.00
2019-05-18T05:37:36.820Z,25.00
2019-05-18T05:40:10.417Z,25.00
2019-05-18T05:42:43.776Z,25.10
2019-05-18T05:45:17.693Z,23.40
2019-05-18T05:47:51.026Z,23.00
2019-05-18T05:50:35.393Z,22.40
2019-05-18T05:53:01.082Z,22.00
2019-05-18T05:55:34.833Z,22.70
2019-05-18T05:58:08.157Z,22.40
2019-05-18T06:00:41.756Z,22.20
2019-05-18T06:03:15.387Z,22.40
2019-05-18T06:05:48.747Z,22.90
2019-05-18T06:08:22.619Z,23.40
2019-05-18T06:10:56.242Z,23.70
2019-05-18T06:13:30.920Z,23.80
2019-05-18T06:16:04.456Z,23.90
2019-05-18T06:18:38.589Z,24.20
2019-05-18T06:21:12.349Z,24.60
2019-05-18T06:23:45.973Z,24.70
2019-05-18T06:26:19.209Z,24.40
2019-05-18T06:28:52.339Z,23.90
2019-05-18T06:31:25.496Z,24.00
2019-05-18T06:33:58.410Z,24.00
2019-05-18T06:36:31.653Z,24.00
2019-05-18T06:39:05.618Z,23.80
2019-05-18T06:41:39.295Z,24.30
2019-05-18T06:44:13.273Z,24.70
2019-05-18T06:46:46.591Z,24.80
2019-05-18T06:49:19.683Z,24.90
2019-05-18T06:51:53.810Z,25.00
2019-05-18T06:54:27.498Z,25.10
2019-05-18T06:57:02.948Z,25.30
2019-05-18T06:59:37.735Z,24.90
2019-05-18T07:02:10.830Z,24.70
2019-05-18T07:04:44.787Z,24.70
2019-05-18T07:07:18.569Z,24.40
2019-05-18T07:09:52.301Z,24.50
2019-05-18T07:12:25.255Z,24.80
2019-05-18T07:15:00.474Z,24.10
2019-05-18T07:17:34.729Z,24.10
2019-05-18T07:20:07.690Z,24.60
2019-05-18T07:22:41.059Z,25.00
2019-05-18T07:25:15.325Z,24.60
2019-05-18T07:27:48.646Z,24.90
2019-05-18T07:30:23.083Z,25.10
2019-05-18T07:32:56.887Z,25.10
2019-05-18T07:35:30.762Z,25.00
2019-05-18T07:38:04.459Z,24.80
2019-05-18T07:40:37.676Z,25.30
2019-05-18T07:43:11.529Z,24.70
2019-05-18T07:45:45.229Z,24.30
2019-05-18T07:48:19.095Z,24.80
2019-05-18T07:50:52.266Z,25.40
2019-05-18T07:53:25.961Z,26.00
2019-05-18T07:56:00.105Z,26.30
2019-05-18T07:58:34.380Z,26.50
2019-05-18T08:01:07.589Z,26.20
2019-05-18T08:03:40.677Z,26.30
2019-05-18T08:06:14.494Z,26.20
2019-05-18T08:08:48.579Z,26.20
2019-05-18T08:11:22.850Z,26.20
2019-05-18T08:13:55.833Z,26.40
2019-05-18T08:16:28.320Z,26.50
2019-05-18T08:19:01.172Z,26.80
2019-05-18T08:21:34.328Z,26.80
2019-05-18T08:24:07.319Z,27.10
2019-05-18T08:26:40.200Z,26.70
2019-05-18T08:29:14.041Z,26.60
2019-05-18T08:31:46.954Z,26.50
2019-05-18T08:34:20.730Z,26.40
2019-05-18T08:36:54.043Z,26.30
2019-05-18T08:39:26.071Z,26.40
2019-05-18T08:41:59.384Z,26.50
2019-05-18T08:44:32.214Z,26.50
2019-05-18T08:47:05.415Z,26.80
2019-05-18T08:49:38.813Z,26.80
2019-05-18T08:52:11.309Z,26.90
2019-05-18T08:54:44.167Z,26.70
2019-05-18T08:57:16.588Z,26.90
2019-05-18T08:59:49.395Z,27.00
2019-05-18T09:02:22.333Z,26.80
2019-05-18T09:04:54.632Z,26.80
2019-05-18T09:07:28.139Z,26.30
2019-05-18T09:10:00.096Z,25.70
2019-05-18T09:12:33.082Z,26.10
2019-05-18T09:15:06.268Z,26.50
2019-05-18T09:17:39.200Z,26.70
2019-05-18T09:20:12.307Z,26.90
2019-05-18T09:22:44.815Z,27.20
2019-05-18T09:25:17.567Z,27.20
2019-05-18T09:27:50.381Z,27.10
2019-05-18T09:30:22.437Z,27.40
2019-05-18T09:32:55.782Z,27.20
2019-05-18T09:35:29.907Z,27.20
2019-05-18T09:38:03.211Z,27.20
2019-05-18T09:40:36.205Z,27.50
2019-05-18T09:43:09.537Z,27.60
2019-05-18T09:45:43.943Z,27.70
2019-05-18T09:48:17.313Z,27.90
2019-05-18T09:50:51.357Z,28.00
2019-05-18T09:53:25.711Z,27.50
2019-05-18T09:55:58.879Z,27.70
2019-05-18T09:58:32.068Z,28.30
2019-05-18T10:01:05.369Z,28.40
2019-05-18T10:03:38.626Z,28.30
2019-05-18T10:06:11.995Z,28.50
2019-05-18T10:08:45.501Z,28.70
2019-05-18T10:11:19.553Z,28.20
2019-05-18T10:13:52.711Z,27.90
2019-05-18T10:16:26.296Z,28.00
2019-05-18T10:19:00.390Z,27.80
2019-05-18T10:21:34.513Z,27.70
2019-05-18T10:24:07.364Z,28.20
2019-05-18T10:26:41.204Z,28.30
2019-05-18T10:29:15.498Z,28.20
2019-05-18T10:31:49.499Z,28.20
2019-05-18T10:34:23.168Z,28.40
2019-05-18T10:36:56.816Z,28.10
2019-05-18T10:39:29.857Z,28.10
2019-05-18T10:42:02.742Z,28.30
2019-05-18T10:44:35.853Z,27.90
2019-05-18T10:47:08.667Z,27.80
2019-05-18T10:49:42.430Z,28.10
2019-05-18T10:52:16.073Z,28.10
2019-05-18T10:54:49.281Z,28.20
2019-05-18T10:57:23.179Z,28.50
2019-05-18T10:59:56.881Z,28.80
2019-05-18T11:02:30.317Z,28.60
2019-05-18T11:05:03.981Z,28.80
2019-05-18T11:07:37.205Z,29.00
2019-05-18T11:10:11.247Z,29.00
2019-05-18T11:12:44.167Z,29.10
2019-05-18T11:15:18.673Z,29.00
2019-05-18T11:17:52.307Z,29.40
2019-05-18T11:20:26.294Z,29.90
2019-05-18T11:22:59.934Z,30.00
2019-05-18T11:25:34.021Z,29.70
2019-05-18T11:28:07.696Z,29.80
2019-05-18T11:30:40.456Z,29.90
2019-05-18T11:33:14.205Z,30.00
2019-05-18T11:35:47.237Z,29.80
2019-05-18T11:38:21.034Z,30.00
2019-05-18T11:40:54.774Z,30.20
2019-05-18T11:43:29.020Z,30.30
2019-05-18T11:46:02.965Z,30.50
2019-05-18T11:48:36.722Z,31.00
2019-05-18T11:51:11.016Z,31.00
2019-05-18T11:53:57.208Z,30.80
2019-05-18T11:56:19.801Z,31.00
2019-05-18T11:58:53.892Z,31.20
2019-05-18T12:01:27.235Z,31.60
2019-05-18T12:04:00.901Z,32.00
2019-05-18T12:06:35.136Z,32.10
2019-05-18T12:09:08.662Z,32.20
2019-05-18T12:11:42.461Z,32.30
2019-05-18T12:14:21.346Z,32.40
2019-05-18T12:16:54.651Z,32.40
2019-05-18T12:19:28.384Z,32.60
2019-05-18T12:22:01.981Z,32.60
2019-05-18T12:24:51.874Z,32.50
2019-05-18T12:27:28.735Z,32.70
2019-05-18T12:30:02.018Z,32.70
2019-05-18T12:32:35.782Z,32.90
2019-05-18T12:35:08.659Z,33.20
2019-05-18T12:37:42.500Z,33.30
2019-05-18T12:40:18.705Z,33.30
2019-05-18T12:42:52.036Z,33.40
2019-05-18T12:45:26.319Z,33.40
2019-05-18T12:47:59.496Z,33.50
2019-05-18T12:50:32.356Z,33.70
2019-05-18T12:53:06.478Z,33.70
2019-05-18T12:55:40.186Z,33.70
2019-05-18T12:58:13.982Z,33.50
2019-05-18T13:00:45.999Z,33.50
2019-05-18T13:03:18.750Z,33.40
2019-05-18T13:05:51.255Z,33.20
2019-05-18T13:08:24.121Z,32.90
2019-05-18T13:10:56.591Z,32.80
2019-05-18T13:13:29.558Z,32.80
2019-05-18T13:16:02.142Z,33.00
2019-05-18T13:18:34.944Z,33.20
2019-05-18T13:21:07.442Z,33.40
2019-05-18T13:23:39.893Z,33.70
2019-05-18T13:26:11.900Z,33.80
2019-05-18T13:28:45.666Z,34.10
2019-05-18T13:31:18.373Z,34.30
2019-05-18T13:33:51.237Z,34.60
2019-05-18T13:36:23.955Z,34.90
2019-05-18T13:38:57.302Z,35.00
2019-05-18T13:41:29.753Z,35.00
2019-05-18T13:44:02.704Z,35.00
2019-05-18T13:46:35.607Z,34.90
2019-05-18T13:49:08.439Z,34.60
2019-05-18T13:51:41.583Z,34.50
2019-05-18T13:54:14.531Z,34.50
2019-05-18T13:56:48.019Z,34.50
2019-05-18T13:59:20.005Z,35.00
2019-05-18T14:01:55.043Z,35.30
2019-05-18T14:04:27.897Z,35.60
2019-05-18T14:07:00.412Z,35.80
2019-05-18T14:09:33.538Z,36.00
2019-05-18T14:12:06.477Z,36.40
2019-05-18T14:14:40.743Z,36.60
2019-05-18T14:17:13.813Z,36.80
2019-05-18T14:19:47.140Z,37.10
2019-05-18T14:22:20.224Z,37.20
2019-05-18T14:24:54.176Z,37.30
2019-05-18T14:27:26.577Z,36.70
2019-05-18T14:29:59.376Z,36.10
2019-05-18T14:32:32.170Z,36.00
2019-05-18T14:35:05.025Z,36.30
2019-05-18T14:37:38.045Z,36.50
2019-05-18T14:40:11.202Z,36.70
2019-05-18T14:42:43.635Z,37.00
2019-05-18T14:45:17.085Z,37.10
2019-05-18T14:47:49.082Z,37.20
2019-05-18T14:50:22.291Z,36.80
2019-05-18T14:52:55.239Z,36.70
2019-05-18T14:55:33.877Z,37.00
2019-05-18T14:58:02.743Z,37.30
2019-05-18T15:00:35.870Z,37.20
2019-05-18T15:03:08.359Z,37.30
2019-05-18T15:05:41.720Z,37.40
2019-05-18T15:08:15.604Z,37.60
2019-05-18T15:10:48.397Z,37.10
2019-05-18T15:13:20.821Z,36.90
2019-05-18T15:15:53.862Z,36.70
2019-05-18T15:18:26.270Z,36.80
2019-05-18T15:20:59.511Z,36.90
2019-05-18T15:23:32.830Z,37.40
2019-05-18T15:26:06.699Z,37.60
2019-05-18T15:28:39.933Z,37.00
2019-05-18T15:31:11.921Z,36.70
2019-05-18T15:33:45.074Z,36.90
2019-05-18T15:36:18.223Z,37.20
2019-05-18T15:38:51.107Z,37.50
2019-05-18T15:41:25.372Z,37.60
2019-05-18T15:43:59.138Z,37.90
2019-05-18T15:46:32.767Z,37.60
2019-05-18T15:49:05.678Z,37.30
2019-05-18T15:51:38.973Z,37.30
2019-05-18T15:54:13.057Z,37.30
2019-05-18T15:56:46.800Z,37.50
2019-05-18T15:59:20.098Z,37.50
2019-05-18T16:01:53.438Z,37.40
2019-05-18T16:04:26.804Z,37.10
2019-05-18T16:07:00.529Z,37.10
2019-05-18T16:09:34.436Z,37.30
2019-05-18T16:12:08.197Z,37.50
2019-05-18T16:14:41.507Z,37.60
2019-05-18T16:17:14.770Z,37.50
2019-05-18T16:19:47.592Z,37.20
2019-05-18T16:22:21.370Z,37.00
2019-05-18T16:24:55.662Z,36.80
2019-05-18T16:27:29.567Z,36.30
2019-05-18T16:30:02.887Z,35.50
2019-05-18T16:32:36.996Z,35.00
2019-05-18T16:35:11.551Z,34.40
2019-05-18T16:37:44.796Z,34.20
2019-05-18T16:40:18.485Z,33.90
2019-05-18T16:42:52.366Z,33.90
2019-05-18T16:45:25.778Z,33.60
2019-05-18T16:47:59.495Z,33.20
2019-05-18T16:50:33.561Z,33.10
2019-05-18T16:53:06.866Z,32.80
2019-05-18T16:55:40.667Z,32.60
2019-05-18T16:58:14.408Z,32.10
2019-05-18T17:00:49.463Z,31.90
2019-05-18T17:03:23.193Z,31.70
2019-05-18T17:05:55.950Z,31.70
2019-05-18T17:08:29.319Z,31.70
2019-05-18T17:11:02.620Z,32.30
2019-05-18T17:13:35.427Z,32.60
2019-05-18T17:16:08.849Z,33.00
2019-05-18T17:18:41.767Z,33.30
2019-05-18T17:21:15.981Z,33.50
2019-05-18T17:23:49.547Z,33.60
2019-05-18T17:26:23.772Z,33.50
2019-05-18T17:28:57.015Z,33.40
2019-05-18T17:31:31.150Z,33.30
2019-05-18T17:34:05.498Z,33.30
2019-05-18T17:36:39.188Z,33.60
2019-05-18T17:39:11.869Z,33.50
2019-05-18T17:41:45.776Z,33.40
2019-05-18T17:44:19.877Z,33.60
2019-05-18T17:46:53.540Z,33.70
2019-05-18T17:49:27.594Z,33.80
2019-05-18T17:52:00.862Z,34.00
2019-05-18T17:54:34.795Z,33.90
2019-05-18T17:57:09.334Z,33.60
2019-05-18T17:59:43.908Z,33.30
2019-05-18T18:02:17.106Z,33.20
2019-05-18T18:04:54.081Z,33.00
2019-05-18T18:07:25.516Z,32.70
2019-05-18T18:09:58.846Z,32.30
2019-05-18T18:12:32.486Z,31.70
2019-05-18T18:15:06.524Z,31.70
2019-05-18T18:17:39.844Z,31.40
2019-05-18T18:20:14.835Z,31.10
2019-05-18T18:22:48.555Z,31.10
2019-05-18T18:25:22.364Z,30.90
2019-05-18T18:27:55.633Z,31.10
2019-05-18T18:30:28.121Z,31.20
2019-05-18T18:33:02.331Z,31.20
2019-05-18T18:35:43.710Z,31.20
2019-05-18T18:38:17.930Z,31.30
2019-05-18T18:40:51.736Z,31.30
2019-05-18T18:43:28.230Z,31.20
2019-05-18T18:46:01.458Z,31.20
2019-05-18T18:48:34.821Z,31.00
2019-05-18T18:51:09.008Z,31.00
2019-05-18T18:53:42.710Z,30.90
2019-05-18T18:56:16.465Z,30.80
2019-05-18T18:58:50.095Z,30.70
2019-05-18T19:01:23.403Z,30.60
2019-05-18T19:03:57.072Z,30.60
2019-05-18T19:06:30.026Z,30.60
2019-05-18T19:09:03.481Z,30.40
2019-05-18T19:11:36.793Z,30.20
2019-05-18T19:14:10.638Z,30.20
2019-05-18T19:16:43.403Z,30.20
2019-05-18T19:19:16.653Z,30.00
2019-05-18T19:21:50.501Z,30.10
2019-05-18T19:24:23.759Z,29.90
2019-05-18T19:26:57.502Z,30.00
2019-05-18T19:29:30.267Z,30.00
2019-05-18T19:32:03.635Z,29.90
2019-05-18T19:34:37.346Z,29.90
2019-05-18T19:37:10.977Z,29.60
2019-05-18T19:39:44.802Z,29.30
2019-05-18T19:42:18.536Z,29.10
2019-05-18T19:44:51.849Z,29.30
2019-05-18T19:47:25.674Z,29.50
2019-05-18T19:49:59.514Z,29.50
2019-05-18T19:52:33.252Z,29.00
2019-05-18T19:55:07.059Z,28.60
2019-05-18T19:57:40.366Z,28.70
2019-05-18T20:00:15.660Z,28.80
2019-05-18T20:02:49.347Z,28.70
2019-05-18T20:05:25.514Z,28.90
2019-05-18T20:07:58.366Z,29.00
2019-05-18T20:10:30.877Z,29.20
2019-05-18T20:13:03.784Z,29.50
2019-05-18T20:15:36.203Z,29.50
2019-05-18T20:18:08.743Z,29.30
2019-05-18T20:20:42.369Z,29.10
2019-05-18T20:23:14.440Z,28.90
2019-05-18T20:25:46.405Z,28.60
2019-05-18T20:28:23.668Z,28.90
2019-05-18T20:30:54.329Z,28.60
2019-05-18T20:33:27.656Z,28.00
2019-05-18T20:36:00.402Z,28.10
2019-05-18T20:38:33.789Z,28.40
2019-05-18T20:41:06.700Z,28.30
2019-05-18T20:43:40.341Z,28.40
2019-05-18T20:46:13.576Z,28.20
2019-05-18T20:48:46.995Z,28.10
2019-05-18T20:51:20.328Z,27.90
2019-05-18T20:53:52.379Z,27.80
2019-05-18T20:56:24.916Z,27.90
2019-05-18T20:58:58.373Z,27.90
2019-05-18T21:01:32.450Z,28.10
2019-05-18T21:04:06.155Z,27.90
2019-05-18T21:06:39.119Z,27.90
2019-05-18T21:09:11.937Z,27.90
2019-05-18T21:11:45.653Z,28.00
2019-05-18T21:14:19.551Z,27.80
2019-05-18T21:16:52.308Z,27.70
2019-05-18T21:19:24.781Z,27.70
2019-05-18T21:21:58.629Z,27.70
2019-05-18T21:24:32.823Z,27.70
2019-05-18T21:27:06.403Z,27.60
2019-05-18T21:29:40.233Z,27.30
2019-05-18T21:32:14.241Z,27.20
2019-05-18T21:34:48.071Z,27.20
2019-05-18T21:37:21.254Z,27.10
2019-05-18T21:39:54.664Z,26.90
2019-05-18T21:42:28.155Z,26.80
2019-05-18T21:45:02.060Z,26.70
2019-05-18T21:47:36.152Z,26.80
2019-05-18T21:50:09.385Z,26.90
2019-05-18T21:52:42.656Z,26.60
2019-05-18T21:55:17.188Z,26.70
2019-05-18T21:57:49.920Z,26.80
2019-05-18T22:00:24.821Z,26.60
2019-05-18T22:02:58.033Z,26.70
2019-05-18T22:05:31.776Z,26.70
2019-05-18T22:08:05.109Z,26.50
2019-05-18T22:10:37.948Z,26.50
2019-05-18T22:13:11.670Z,26.40
2019-05-18T22:15:45.460Z,26.30
2019-05-18T22:18:24.687Z,26.50
2019-05-18T22:20:53.671Z,26.90
2019-05-18T22:23:26.976Z,26.90
2019-05-18T22:26:00.292Z,27.10
2019-05-18T22:28:33.488Z,27.20
2019-05-18T22:31:06.744Z,27.00
2019-05-18T22:33:40.016Z,27.20
2019-05-18T22:36:13.824Z,27.00
2019-05-18T22:38:47.074Z,26.90
2019-05-18T22:41:20.339Z,27.00
2019-05-18T22:43:53.161Z,27.20
2019-05-18T22:46:26.815Z,27.40
2019-05-18T22:49:00.579Z,27.20
2019-05-18T22:51:34.861Z,27.00
2019-05-18T22:54:08.469Z,26.70
2019-05-18T22:56:41.752Z,26.60
2019-05-18T22:59:14.628Z,26.80
2019-05-18T23:01:47.838Z,26.90
2019-05-18T23:04:21.552Z,27.10
2019-05-18T23:06:54.926Z,26.90
2019-05-18T23:09:29.077Z,27.20
2019-05-18T23:12:03.269Z,27.20
2019-05-18T23:14:37.014Z,27.10
2019-05-18T23:17:10.188Z,27.10
2019-05-18T23:19:43.145Z,27.10
2019-05-18T23:22:16.782Z,27.10
2019-05-18T23:24:50.993Z,27.10
2019-05-18T23:27:24.247Z,26.70
2019-05-18T23:29:57.102Z,27.00
2019-05-18T23:32:30.877Z,26.90
2019-05-18T23:35:04.227Z,27.00
2019-05-18T23:37:37.426Z,26.90
2019-05-18T23:40:11.313Z,26.90
2019-05-18T23:42:44.958Z,26.60
2019-05-18T23:45:18.781Z,26.50
2019-05-18T23:47:51.617Z,26.50
2019-05-18T23:50:25.355Z,26.30
2019-05-18T23:52:58.951Z,26.30
2019-05-18T23:55:33.146Z,26.40
2019-05-18T23:58:06.956Z,26.30
